CheckWX is a tool to help pilots better visualize weather data.  It is not intended as a substitute for an official pre-flight weather briefing.

03:31:32 UTC

EHBK TAF
Maastricht Aachen Airport
Maastricht, The Netherlands
TAF EHBK 212305Z 2200/2306 28008KT 9999 BKN012 PROB30 2200/2207 6000 BKN006 BECMG 2206/2209 SCT025

May-22@
00:00 UTC

May-22 @ 00:00 UTC

May-22@
06:00 UTC

May-22 @ 06:00 UTC

TAF EHBK 212305Z 2200/2306 28008KT 9999 BKN012
Wind
  • 280° at 8 KTS
Cloud Levels
  • Broken at 1,200' AGL

May-22@
00:00 UTC

May-22 @ 00:00 UTC

May-22@
07:00 UTC

May-22 @ 07:00 UTC

PROB30 2200/2207 6000 BKN006

Probable - 30% Likelihood

Probable - 30% Likelihood during this time.

Cloud Levels
  • Broken at 600' AGL

May-22@
06:00 UTC

May-22 @ 06:00 UTC

May-23@
06:00 UTC

May-23 @ 06:00 UTC

BECMG 2206/2209 SCT025

Becoming

Becoming Conditions expected by Wed, May 22, 2019 @ 09:00 UTC

Wind
  • 280° at 8 KTS
Cloud Levels
  • Scattered at 2,500' AGL